Time;durP1;ratioP1;P1;durP2;ratioP2;P2;SDS_P1;SDS_P2;PMS_P1;PMS_P2;Temp;Humidity;BMP_temperature;BMP_pressure;BME280_temperature;BME280_humidity;BME280_pressure;Samples;Min_cycle;Max_cycle;Signal;HPM_P1;HPM_P2
2022/04/29 00:00:33;;;;;;;9.37;6.43;;;12.60;86.30;;;;;;6272170;23;20411;-44
2022/04/29 00:03:01;;;;;;;12.27;7.30;;;12.60;87.30;;;;;;6272935;23;20422;-43
2022/04/29 00:05:28;;;;;;;12.43;6.80;;;12.60;88.80;;;;;;6273278;23;20387;-41
2022/04/29 00:07:54;;;;;;;15.30;8.03;;;12.60;89.60;;;;;;6271212;23;20415;-42
2022/04/29 00:10:21;;;;;;;16.90;8.47;;;12.50;90.20;;;;;;6272080;23;20399;-47
2022/04/29 00:15:28;;;;;;;8.63;6.40;;;12.50;91.40;;;;;;6241923;23;20415;-46
2022/04/29 00:17:55;;;;;;;10.90;6.70;;;12.40;91.90;;;;;;6241201;23;20476;-42
2022/04/29 00:20:22;;;;;;;8.73;6.03;;;12.40;92.50;;;;;;6241273;22;20436;-45
2022/04/29 00:22:50;;;;;;;10.80;6.37;;;12.30;93.20;;;;;;6241192;23;20404;-41
2022/04/29 00:25:17;;;;;;;9.13;5.93;;;12.30;93.70;;;;;;6241358;23;20479;-46
2022/04/29 00:27:44;;;;;;;14.47;6.97;;;12.20;93.80;;;;;;6241047;23;20423;-46
2022/04/29 00:30:13;;;;;;;10.00;6.40;;;12.20;94.20;;;;;;6241575;23;20500;-44
2022/04/29 00:32:42;;;;;;;12.23;7.70;;;12.20;94.40;;;;;;6241565;23;20404;-44
2022/04/29 00:35:10;;;;;;;13.73;7.70;;;12.10;94.20;;;;;;6241564;23;20416;-39
2022/04/29 00:37:44;;;;;;;9.80;6.40;;;12.10;94.60;;;;;;6241147;23;20427;-43
2022/04/29 00:40:14;;;;;;;11.83;6.80;;;12.10;94.70;;;;;;6241703;23;20395;-37
2022/04/29 00:42:40;;;;;;;10.63;7.17;;;12.10;95.00;;;;;;6241508;23;20411;-45
2022/04/29 00:45:08;;;;;;;12.90;6.87;;;12.10;95.10;;;;;;6241753;23;20368;-42
2022/04/29 00:47:35;;;;;;;11.17;7.67;;;12.00;95.20;;;;;;6241976;23;20446;-45
2022/04/29 00:50:03;;;;;;;10.57;6.87;;;12.00;95.50;;;;;;6241187;23;20443;-46
2022/04/29 00:52:32;;;;;;;15.40;7.90;;;12.00;95.80;;;;;;6241362;23;20390;-38
2022/04/29 00:55:08;;;;;;;12.30;6.60;;;12.00;95.80;;;;;;6241165;23;20415;-43
2022/04/29 00:57:41;;;;;;;12.20;6.80;;;12.00;96.40;;;;;;6241331;23;20392;-42
2022/04/29 01:00:14;;;;;;;12.10;6.30;;;12.00;96.10;;;;;;6241127;23;20440;-47
2022/04/29 01:02:42;;;;;;;10.20;6.40;;;12.00;96.00;;;;;;6241192;23;20425;-40
2022/04/29 01:05:12;;;;;;;9.73;6.47;;;12.00;96.10;;;;;;6241030;23;20423;-45
2022/04/29 01:07:40;;;;;;;9.90;6.37;;;12.00;96.10;;;;;;6241306;23;20435;-44
2022/04/29 01:10:10;;;;;;;10.30;6.37;;;12.00;96.20;;;;;;6240613;23;20447;-47
2022/04/29 01:12:38;;;;;;;11.90;6.93;;;12.00;96.30;;;;;;6240361;23;20439;-42
2022/04/29 01:15:07;;;;;;;12.53;7.20;;;11.90;96.80;;;;;;6241011;23;20442;-51
2022/04/29 01:17:35;;;;;;;10.10;5.97;;;11.90;97.10;;;;;;6241060;23;20400;-44
2022/04/29 01:20:03;;;;;;;9.50;6.20;;;11.80;97.30;;;;;;6240708;23;20458;-40
2022/04/29 01:22:32;;;;;;;11.30;6.93;;;11.80;97.50;;;;;;6240283;23;20396;-42
2022/04/29 01:24:58;;;;;;;11.70;7.13;;;11.80;97.70;;;;;;6241399;23;20384;-45
2022/04/29 01:27:25;;;;;;;10.20;6.30;;;11.80;97.90;;;;;;6241210;23;20497;-40
2022/04/29 01:29:59;;;;;;;13.53;8.10;;;11.80;98.20;;;;;;6240471;23;20424;-46
2022/04/29 01:32:26;;;;;;;9.90;6.93;;;11.80;98.30;;;;;;6240782;23;20467;-42
2022/04/29 01:34:53;;;;;;;9.20;5.73;;;11.80;98.80;;;;;;6241654;23;20396;-40
2022/04/29 01:37:19;;;;;;;10.80;6.37;;;11.70;99.10;;;;;;6240654;23;20414;-48
2022/04/29 01:39:47;;;;;;;10.70;6.90;;;11.70;99.20;;;;;;6240486;23;20415;-48
2022/04/29 01:42:14;;;;;;;10.00;6.03;;;11.70;99.60;;;;;;6240348;23;20412;-42
2022/04/29 01:44:41;;;;;;;13.07;6.90;;;11.70;99.90;;;;;;6239897;23;20428;-44
2022/04/29 01:47:08;;;;;;;11.13;7.27;;;11.70;99.90;;;;;;6240594;23;20422;-44
2022/04/29 01:49:34;;;;;;;8.20;6.00;;;11.60;99.90;;;;;;6240350;23;20431;-45
2022/04/29 01:52:01;;;;;;;7.17;5.97;;;11.60;99.90;;;;;;6240515;23;20396;-46
2022/04/29 01:54:28;;;;;;;11.10;8.07;;;11.50;99.90;;;;;;6240694;23;20404;-44
2022/04/29 01:56:56;;;;;;;13.90;7.67;;;11.50;99.90;;;;;;6240315;23;20428;-47
2022/04/29 01:59:23;;;;;;;17.43;11.30;;;11.50;99.90;;;;;;6240659;23;20393;-44
2022/04/29 02:01:50;;;;;;;15.40;6.93;;;11.50;99.90;;;;;;6240212;23;20424;-45
2022/04/29 02:04:17;;;;;;;11.27;7.30;;;11.40;99.90;;;;;;6240312;23;20436;-47
2022/04/29 02:06:46;;;;;;;11.03;7.90;;;11.30;99.90;;;;;;6239961;23;20414;-36
2022/04/29 02:09:12;;;;;;;13.43;8.20;;;11.30;99.90;;;;;;6239961;23;20479;-38
2022/04/29 02:12:03;;;;;;;11.17;7.00;;;11.30;99.90;;;;;;6240466;23;20388;-41
2022/04/29 02:14:31;;;;;;;13.80;9.10;;;11.30;99.90;;;;;;6239863;23;20432;-40
2022/04/29 02:16:58;;;;;;;11.10;7.10;;;11.30;99.90;;;;;;6239771;23;20408;-46
2022/04/29 02:19:27;;;;;;;11.10;7.20;;;11.30;99.90;;;;;;6240061;23;20376;-41
2022/04/29 02:21:54;;;;;;;17.90;7.37;;;11.30;99.90;;;;;;6239942;23;20427;-41
2022/04/29 02:24:23;;;;;;;11.70;6.40;;;11.30;99.90;;;;;;6241402;23;20400;-37
2022/04/29 02:26:50;;;;;;;18.57;7.60;;;11.20;99.90;;;;;;6242407;23;20435;-51
2022/04/29 02:29:17;;;;;;;9.00;6.20;;;11.30;99.90;;;;;;6241768;23;20468;-48
2022/04/29 02:31:45;;;;;;;11.20;7.90;;;11.30;99.90;;;;;;6241746;23;20399;-44
2022/04/29 02:34:11;;;;;;;8.80;5.63;;;11.20;99.90;;;;;;6242188;23;20410;-43
2022/04/29 02:36:40;;;;;;;8.50;5.60;;;11.20;99.90;;;;;;6240657;23;20446;-49
2022/04/29 02:39:06;;;;;;;9.20;5.50;;;11.20;99.90;;;;;;6241149;23;20484;-44
2022/04/29 02:41:33;;;;;;;9.63;5.60;;;11.20;99.90;;;;;;6241793;23;20439;-42
2022/04/29 02:44:00;;;;;;;10.53;5.00;;;11.20;99.90;;;;;;6241561;23;20434;-57
2022/04/29 02:46:26;;;;;;;9.77;6.77;;;11.20;99.90;;;;;;6241801;23;20475;-44
2022/04/29 02:48:54;;;;;;;12.87;5.50;;;11.20;99.90;;;;;;6241767;23;20439;-46
2022/04/29 02:51:23;;;;;;;6.03;5.20;;;11.20;99.90;;;;;;6242309;23;20414;-45
2022/04/29 02:53:52;;;;;;;9.73;4.97;;;11.10;99.90;;;;;;6241580;23;20434;-49
2022/04/29 02:56:19;;;;;;;7.40;5.03;;;11.10;99.90;;;;;;6242018;23;20410;-39
2022/04/29 02:58:46;;;;;;;8.83;5.20;;;11.10;99.90;;;;;;6242138;23;20379;-42
2022/04/29 03:01:12;;;;;;;9.93;4.50;;;11.10;99.90;;;;;;6241865;23;20400;-43
2022/04/29 03:03:39;;;;;;;7.83;5.23;;;11.10;99.90;;;;;;6241632;23;20419;-46
2022/04/29 03:06:07;;;;;;;6.90;5.10;;;11.00;99.90;;;;;;6241578;23;20416;-42
2022/04/29 03:08:34;;;;;;;6.43;5.30;;;11.00;99.90;;;;;;6241949;23;20423;-47
2022/04/29 03:11:03;;;;;;;8.80;6.17;;;11.00;99.90;;;;;;6242275;23;20486;-44
2022/04/29 03:13:32;;;;;;;11.20;5.40;;;11.00;99.90;;;;;;6240989;23;20424;-44
2022/04/29 03:15:58;;;;;;;10.90;5.80;;;10.90;99.90;;;;;;6241982;23;20407;-40
2022/04/29 03:18:28;;;;;;;9.17;5.13;;;10.90;99.90;;;;;;6241109;23;20745;-48
2022/04/29 03:20:57;;;;;;;11.03;5.27;;;10.90;99.90;;;;;;6240964;23;20412;-46
2022/04/29 03:23:25;;;;;;;8.37;5.27;;;10.80;99.90;;;;;;6241512;23;20399;-42
2022/04/29 03:25:52;;;;;;;6.40;4.20;;;10.80;99.90;;;;;;6241353;23;20384;-48
2022/04/29 03:28:19;;;;;;;6.87;4.70;;;10.80;99.90;;;;;;6241411;23;20428;-48
2022/04/29 03:30:47;;;;;;;10.53;6.10;;;10.80;99.90;;;;;;6241580;23;20466;-43
2022/04/29 03:33:14;;;;;;;8.27;4.37;;;10.80;99.90;;;;;;6241009;23;20420;-47
2022/04/29 03:35:42;;;;;;;8.43;4.60;;;10.70;99.90;;;;;;6240668;23;20399;-43
2022/04/29 03:38:09;;;;;;;7.97;4.70;;;10.70;99.90;;;;;;6241324;23;20400;-42
2022/04/29 03:40:38;;;;;;;6.60;4.80;;;10.70;99.90;;;;;;6241321;23;20407;-37
2022/04/29 03:43:12;;;;;;;8.27;4.80;;;10.70;99.90;;;;;;6241611;23;20702;-40
2022/04/29 03:45:39;;;;;;;8.17;5.73;;;10.70;99.90;;;;;;6241359;23;20442;-44
2022/04/29 03:48:06;;;;;;;6.00;4.53;;;10.60;99.90;;;;;;6240695;23;20472;-43
2022/04/29 03:50:33;;;;;;;9.23;5.20;;;10.60;99.90;;;;;;6240256;23;20450;-50
2022/04/29 03:53:02;;;;;;;6.63;5.27;;;10.60;99.90;;;;;;6241272;23;20396;-49
2022/04/29 03:55:31;;;;;;;9.93;6.10;;;10.60;99.90;;;;;;6240585;23;20412;-44
2022/04/29 03:58:02;;;;;;;6.07;4.53;;;10.60;99.90;;;;;;6240836;23;20454;-47
2022/04/29 04:00:32;;;;;;;10.87;5.77;;;10.50;99.90;;;;;;6241420;23;20376;-46
2022/04/29 04:02:59;;;;;;;8.33;4.90;;;10.50;99.90;;;;;;6240720;23;20424;-43
2022/04/29 04:05:26;;;;;;;6.23;4.70;;;10.50;99.90;;;;;;6241194;23;20448;-45
2022/04/29 04:07:53;;;;;;;6.80;5.73;;;10.50;99.90;;;;;;6240884;23;20486;-43
2022/04/29 04:10:20;;;;;;;8.93;4.73;;;10.50;99.90;;;;;;6240981;23;20448;-39
2022/04/29 04:12:51;;;;;;;9.60;4.70;;;10.60;99.90;;;;;;6240979;23;20415;-40
2022/04/29 04:15:22;;;;;;;10.17;5.90;;;10.60;99.90;;;;;;6240878;23;20473;-45
2022/04/29 04:17:50;;;;;;;8.50;4.90;;;10.60;99.90;;;;;;6240785;23;20414;-43
2022/04/29 04:20:17;;;;;;;13.23;5.03;;;10.50;99.90;;;;;;6240868;23;20469;-44
2022/04/29 04:22:46;;;;;;;9.50;5.10;;;10.60;99.90;;;;;;6241026;23;20427;-46
2022/04/29 04:25:14;;;;;;;13.83;4.57;;;10.60;99.90;;;;;;6240972;23;20463;-40
2022/04/29 04:27:41;;;;;;;14.13;5.63;;;10.60;99.90;;;;;;6240705;23;20494;-46
2022/04/29 04:30:12;;;;;;;12.23;5.47;;;10.70;99.90;;;;;;6240653;23;20448;-53
2022/04/29 04:32:42;;;;;;;17.43;5.73;;;10.70;99.90;;;;;;6240139;23;20428;-49
2022/04/29 04:35:09;;;;;;;9.07;5.73;;;10.80;99.90;;;;;;6240996;23;20400;-40
2022/04/29 04:37:36;;;;;;;7.37;5.07;;;10.80;99.90;;;;;;6240813;23;20458;-42
2022/04/29 04:40:04;;;;;;;10.13;5.20;;;10.90;99.90;;;;;;6240562;23;20427;-49
2022/04/29 04:42:31;;;;;;;5.93;4.10;;;10.90;99.90;;;;;;6240773;23;20395;-43
2022/04/29 04:44:58;;;;;;;7.47;5.43;;;11.00;99.90;;;;;;6240564;23;20442;-42
2022/04/29 04:47:26;;;;;;;10.27;5.90;;;11.10;99.90;;;;;;6239938;23;20400;-45
2022/04/29 04:49:54;;;;;;;17.43;5.63;;;11.10;99.90;;;;;;6241006;22;20474;-46
2022/04/29 04:52:21;;;;;;;7.57;5.30;;;11.30;99.90;;;;;;6241323;23;20430;-40
2022/04/29 04:54:49;;;;;;;9.67;5.73;;;11.30;99.90;;;;;;6240994;23;20442;-41
2022/04/29 04:57:15;;;;;;;13.50;5.23;;;11.40;99.90;;;;;;6240846;23;20435;-48
2022/04/29 04:59:42;;;;;;;6.47;4.73;;;11.40;99.90;;;;;;6241134;23;20438;-44
2022/04/29 05:02:09;;;;;;;10.47;4.97;;;11.50;99.90;;;;;;6241018;23;20391;-45
2022/04/29 05:04:35;;;;;;;5.93;3.80;;;11.60;99.90;;;;;;6241443;23;20400;-44
2022/04/29 05:07:04;;;;;;;9.20;4.30;;;11.60;99.90;;;;;;6241486;23;20380;-47
2022/04/29 05:09:34;;;;;;;12.83;4.90;;;11.70;99.90;;;;;;6240890;23;20578;-43
2022/04/29 05:12:00;;;;;;;8.00;4.03;;;11.80;99.90;;;;;;6240847;23;20917;-44
2022/04/29 05:14:27;;;;;;;14.20;4.37;;;11.80;99.90;;;;;;6241406;23;20443;-42
2022/04/29 05:16:54;;;;;;;5.97;3.80;;;11.90;99.90;;;;;;6240852;23;20424;-45
2022/04/29 05:19:20;;;;;;;7.13;4.13;;;12.00;99.90;;;;;;6240384;23;20435;-49
2022/04/29 05:21:48;;;;;;;7.60;4.37;;;12.10;99.90;;;;;;6240901;23;20419;-42
2022/04/29 05:24:16;;;;;;;6.80;4.63;;;12.20;99.90;;;;;;6240717;23;20384;-47
2022/04/29 05:26:43;;;;;;;8.50;4.30;;;12.20;99.90;;;;;;6240365;23;20419;-44
2022/04/29 05:29:09;;;;;;;6.77;4.20;;;12.30;99.90;;;;;;6241347;23;20420;-48
2022/04/29 05:31:36;;;;;;;11.43;4.33;;;12.40;99.90;;;;;;6240707;23;20436;-43
2022/04/29 05:34:05;;;;;;;6.83;4.90;;;12.40;99.90;;;;;;6240030;23;20424;-40
2022/04/29 05:36:32;;;;;;;9.57;5.40;;;12.50;99.90;;;;;;6241087;23;20408;-50
2022/04/29 05:44:30;;;;;;;16.57;5.03;;;12.60;99.90;;;;;;6241434;23;20434;-44
2022/04/29 05:46:57;;;;;;;8.27;5.27;;;12.70;99.90;;;;;;6240792;23;20400;-43
2022/04/29 05:49:24;;;;;;;12.40;5.00;;;12.80;99.90;;;;;;6240878;23;20404;-47
2022/04/29 05:51:50;;;;;;;11.13;5.57;;;12.80;99.90;;;;;;6240456;23;20422;-48
2022/04/29 05:54:17;;;;;;;7.23;4.97;;;13.00;99.90;;;;;;6240408;23;20406;-48
2022/04/29 05:56:45;;;;;;;6.63;5.17;;;13.00;99.90;;;;;;6240090;23;20450;-49
2022/04/29 05:59:11;;;;;;;8.27;4.10;;;13.10;99.80;;;;;;6240313;23;20396;-44
2022/04/29 06:01:38;;;;;;;7.23;4.70;;;13.10;99.40;;;;;;6240578;23;20511;-44
2022/04/29 06:04:05;;;;;;;14.37;5.57;;;13.20;97.30;;;;;;6239537;23;20396;-47
2022/04/29 06:06:33;;;;;;;6.97;4.37;;;13.30;96.10;;;;;;6240586;23;20424;-48
2022/04/29 06:09:02;;;;;;;11.40;4.10;;;13.40;95.20;;;;;;6240417;23;20423;-45
2022/04/29 06:11:28;;;;;;;9.33;3.90;;;13.40;94.20;;;;;;6240160;23;20498;-43
2022/04/29 06:14:06;;;;;;;8.97;3.87;;;13.50;93.10;;;;;;6240811;23;20451;-48
2022/04/29 06:16:33;;;;;;;6.47;3.03;;;13.60;92.30;;;;;;6240404;23;20389;-48
2022/04/29 06:19:00;;;;;;;16.17;3.60;;;13.70;91.20;;;;;;6240136;23;20416;-40
2022/04/29 06:21:27;;;;;;;5.40;3.50;;;13.80;89.80;;;;;;6240303;23;20439;-46
2022/04/29 06:23:53;;;;;;;4.50;2.77;;;13.80;87.00;;;;;;6240334;23;20424;-43
2022/04/29 06:26:20;;;;;;;8.87;4.63;;;13.80;85.00;;;;;;6240089;23;20422;-45
2022/04/29 06:28:47;;;;;;;12.33;3.23;;;14.00;82.50;;;;;;6240075;23;20416;-46
2022/04/29 06:31:15;;;;;;;7.27;2.77;;;14.00;79.80;;;;;;6240699;23;20459;-44
2022/04/29 06:33:42;;;;;;;11.07;2.80;;;14.10;77.90;;;;;;6240290;23;20411;-41
2022/04/29 06:36:09;;;;;;;5.70;2.77;;;14.20;77.60;;;;;;6239651;23;20400;-45
2022/04/29 06:38:37;;;;;;;13.23;2.80;;;14.30;78.70;;;;;;6240565;23;20443;-45
2022/04/29 06:41:04;;;;;;;6.97;3.20;;;14.40;78.70;;;;;;6240024;23;20483;-47
2022/04/29 06:43:30;;;;;;;7.83;3.43;;;14.50;77.30;;;;;;6240501;23;20415;-42
2022/04/29 06:45:58;;;;;;;8.03;3.90;;;14.60;76.50;;;;;;6240110;23;20424;-45
2022/04/29 06:48:27;;;;;;;11.37;2.97;;;14.70;74.70;;;;;;6240127;23;20435;-47
2022/04/29 06:50:54;;;;;;;13.70;3.30;;;14.80;72.80;;;;;;6240242;23;20482;-42
2022/04/29 06:53:20;;;;;;;4.57;2.20;;;14.80;73.20;;;;;;6240052;23;20463;-48
2022/04/29 06:55:47;;;;;;;5.80;2.90;;;14.90;72.00;;;;;;6240326;23;20400;-46
2022/04/29 06:58:14;;;;;;;12.43;3.20;;;15.10;70.90;;;;;;6240462;23;20396;-45
2022/04/29 07:00:42;;;;;;;12.07;3.00;;;15.20;70.20;;;;;;6239871;23;20400;-42
2022/04/29 07:03:10;;;;;;;3.90;3.10;;;15.30;69.30;;;;;;6227685;23;20432;-46
2022/04/29 07:05:39;;;;;;;9.70;2.30;;;15.30;68.90;;;;;;6226958;23;20404;-45
2022/04/29 07:08:06;;;;;;;6.43;3.40;;;15.50;68.90;;;;;;6226749;23;20432;-43
2022/04/29 07:10:33;;;;;;;6.40;2.73;;;15.60;67.80;;;;;;6225517;23;20439;-46
2022/04/29 07:13:02;;;;;;;9.20;3.00;;;15.80;67.50;;;;;;6220574;23;20735;-48
2022/04/29 07:15:29;;;;;;;9.00;3.00;;;16.00;66.80;;;;;;6220966;23;20396;-51
2022/04/29 07:17:56;;;;;;;4.50;2.20;;;16.20;66.00;;;;;;6220957;23;20474;-46
2022/04/29 07:20:23;;;;;;;5.23;3.00;;;16.30;65.00;;;;;;6220733;23;20446;-48
2022/04/29 07:22:51;;;;;;;5.83;2.33;;;16.40;64.10;;;;;;6220074;23;20412;-48
2022/04/29 07:25:19;;;;;;;4.20;1.97;;;16.50;62.40;;;;;;6220960;23;20513;-47
2022/04/29 07:27:47;;;;;;;4.80;2.10;;;16.80;61.90;;;;;;6220816;23;20424;-43
2022/04/29 07:30:13;;;;;;;3.63;2.17;;;16.80;59.80;;;;;;6220603;23;20431;-44
2022/04/29 07:32:40;;;;;;;8.50;3.27;;;16.90;60.10;;;;;;6220518;23;20462;-47
2022/04/29 07:43:22;;;;;;;6.27;2.60;;;17.20;57.80;;;;;;6220244;23;20446;-49
2022/04/29 07:45:51;;;;;;;10.70;6.63;;;17.30;57.10;;;;;;6220537;23;20479;-47
2022/04/29 07:48:19;;;;;;;5.87;3.17;;;17.60;57.90;;;;;;6220388;23;20475;-46
2022/04/29 07:50:46;;;;;;;6.80;2.50;;;18.40;57.00;;;;;;6236230;23;20501;-43
2022/04/29 07:53:14;;;;;;;5.20;3.10;;;19.20;55.60;;;;;;6242254;23;20432;-46
2022/04/29 07:55:41;;;;;;;5.90;2.60;;;20.30;54.00;;;;;;6242445;23;20438;-47
2022/04/29 07:58:09;;;;;;;6.63;3.87;;;21.00;52.60;;;;;;6241805;23;20428;-45
2022/04/29 08:00:37;;;;;;;3.80;2.97;;;21.60;50.80;;;;;;6242682;23;20414;-53
2022/04/29 08:03:04;;;;;;;4.63;2.33;;;21.70;49.80;;;;;;6242392;23;20467;-41
2022/04/29 08:05:31;;;;;;;5.20;2.90;;;21.90;49.30;;;;;;6242531;23;20435;-46
2022/04/29 08:07:59;;;;;;;5.50;2.73;;;22.30;48.90;;;;;;6242317;23;20400;-41
2022/04/29 08:10:28;;;;;;;5.87;3.40;;;22.90;47.90;;;;;;6242590;23;20466;-46
2022/04/29 08:12:54;;;;;;;5.17;2.73;;;23.40;47.00;;;;;;6242505;23;20458;-44
2022/04/29 08:15:21;;;;;;;5.80;2.60;;;23.80;45.90;;;;;;6241861;23;20531;-46
2022/04/29 08:17:48;;;;;;;5.53;2.60;;;23.80;44.30;;;;;;6241524;23;20404;-42
2022/04/29 08:20:15;;;;;;;7.60;3.10;;;23.50;44.00;;;;;;6239273;23;20420;-45
2022/04/29 08:22:42;;;;;;;6.83;3.17;;;23.40;45.10;;;;;;6241238;23;20231;-48
2022/04/29 08:25:09;;;;;;;4.07;2.60;;;23.50;44.40;;;;;;6241498;23;20424;-42
2022/04/29 08:27:37;;;;;;;3.13;2.33;;;23.40;43.70;;;;;;6241181;23;20415;-42
2022/04/29 08:30:06;;;;;;;3.90;2.70;;;23.60;43.30;;;;;;6240713;23;20450;-42
2022/04/29 08:32:41;;;;;;;5.90;2.97;;;23.90;42.90;;;;;;6242024;23;20431;-41
2022/04/29 08:35:09;;;;;;;2.97;2.20;;;24.10;42.80;;;;;;6242000;23;20424;-46
2022/04/29 08:37:36;;;;;;;2.90;2.40;;;24.50;42.80;;;;;;6241610;23;20415;-42
2022/04/29 08:40:02;;;;;;;5.43;3.40;;;24.90;42.20;;;;;;6241587;23;20420;-43
2022/04/29 08:42:35;;;;;;;5.03;2.97;;;25.40;41.20;;;;;;6242251;23;20392;-49
2022/04/29 08:45:07;;;;;;;6.23;2.50;;;25.70;40.80;;;;;;6241891;23;20384;-38
2022/04/29 08:47:36;;;;;;;7.40;2.70;;;26.00;41.20;;;;;;6241876;23;20377;-50
2022/04/29 08:50:05;;;;;;;4.57;2.70;;;26.30;40.50;;;;;;6241884;23;20410;-43
2022/04/29 08:52:32;;;;;;;3.23;2.93;;;26.30;39.30;;;;;;6241750;23;20458;-42
2022/04/29 09:00:31;;;;;;;5.43;3.03;;;25.80;39.90;;;;;;6241992;23;20395;-39
2022/04/29 09:02:58;;;;;;;5.97;3.50;;;25.40;40.00;;;;;;6241436;23;20384;-43
2022/04/29 09:05:25;;;;;;;4.30;3.03;;;25.00;39.90;;;;;;6241772;23;20416;-41
2022/04/29 09:07:55;;;;;;;6.63;3.47;;;24.50;40.20;;;;;;6241647;23;20400;-44
2022/04/29 09:10:23;;;;;;;5.80;2.80;;;24.30;41.00;;;;;;6241695;23;20368;-43
2022/04/29 09:12:50;;;;;;;4.00;2.93;;;24.00;41.50;;;;;;6241376;23;20424;-40
2022/04/29 09:15:18;;;;;;;3.97;3.40;;;23.70;42.40;;;;;;6241251;23;20450;-47
2022/04/29 09:17:47;;;;;;;4.50;3.30;;;23.80;42.20;;;;;;6240739;23;20525;-46
2022/04/29 09:20:16;;;;;;;5.37;3.47;;;23.90;41.30;;;;;;6241432;23;20476;-41
2022/04/29 09:22:46;;;;;;;4.70;3.60;;;23.60;41.00;;;;;;6241656;23;20412;-40
2022/04/29 09:25:13;;;;;;;4.20;3.13;;;23.60;41.50;;;;;;6241595;23;20380;-48
2022/04/29 09:27:57;;;;;;;5.77;3.30;;;23.80;41.70;;;;;;6241426;23;20412;-45
2022/04/29 09:30:39;;;;;;;3.50;3.03;;;24.40;42.50;;;;;;6241792;23;20407;-45
2022/04/29 09:33:19;;;;;;;4.83;2.70;;;24.70;40.40;;;;;;6241601;23;20376;-49
2022/04/29 09:35:49;;;;;;;3.23;2.90;;;25.10;40.90;;;;;;6241254;23;20384;-39
2022/04/29 09:41:01;;;;;;;5.40;3.00;;;26.00;40.40;;;;;;6241735;23;20387;-43
2022/04/29 09:43:35;;;;;;;4.93;3.00;;;26.20;39.40;;;;;;6241291;23;20407;-47
2022/04/29 09:46:13;;;;;;;4.57;3.77;;;26.20;38.70;;;;;;6241057;23;20417;-46
2022/04/29 09:48:59;;;;;;;7.60;4.53;;;26.10;38.70;;;;;;6241454;23;20435;-45
2022/04/29 09:51:47;;;;;;;6.53;3.50;;;25.90;38.90;;;;;;6240548;23;20438;-46
2022/04/29 09:54:20;;;;;;;9.33;3.43;;;26.00;39.00;;;;;;6240992;23;20479;-48
2022/04/29 09:57:01;;;;;;;6.60;3.90;;;25.60;38.90;;;;;;6241033;22;20423;-46
2022/04/29 09:59:32;;;;;;;6.30;3.80;;;25.50;39.20;;;;;;6241796;23;20419;-42
2022/04/29 10:01:59;;;;;;;4.67;3.53;;;25.60;39.20;;;;;;6241630;23;20424;-41
2022/04/29 10:04:29;;;;;;;6.87;3.50;;;25.90;38.70;;;;;;6242085;23;20467;-47
2022/04/29 10:06:56;;;;;;;3.50;3.13;;;26.10;38.80;;;;;;6241888;23;20400;-46
2022/04/29 10:09:25;;;;;;;5.70;3.43;;;26.20;38.30;;;;;;6241544;23;20400;-42
2022/04/29 10:11:53;;;;;;;5.50;3.70;;;26.50;37.90;;;;;;6241202;23;20431;-41
2022/04/29 10:14:21;;;;;;;4.00;3.23;;;26.30;37.80;;;;;;6241584;22;20412;-41
2022/04/29 10:21:15;;;;;;;5.43;3.60;;;26.00;37.40;;;;;;6241485;23;20411;-42
2022/04/29 10:22:32;;;;;;;7.60;3.73;;;26.30;36.80;;;;;;6241127;23;20427;-39
2022/04/29 10:24:59;;;;;;;8.73;4.00;;;26.40;36.90;;;;;;6241474;23;20388;-45
2022/04/29 10:27:27;;;;;;;7.70;4.50;;;25.90;37.00;;;;;;6241424;23;20391;-47
2022/04/29 10:29:55;;;;;;;6.17;4.10;;;25.50;37.40;;;;;;6242384;22;20390;-43
2022/04/29 10:32:21;;;;;;;8.20;3.60;;;25.20;38.20;;;;;;6241355;23;20439;-45
2022/04/29 10:34:54;;;;;;;8.67;4.60;;;25.00;38.60;;;;;;6241654;22;20388;-44
2022/04/29 10:37:32;;;;;;;5.70;3.93;;;24.70;38.60;;;;;;6241601;23;20423;-41
2022/04/29 10:40:10;;;;;;;7.27;3.37;;;24.30;38.30;;;;;;6241906;22;20372;-37
2022/04/29 10:43:05;;;;;;;8.13;4.17;;;24.00;39.40;;;;;;6241740;23;20399;-44
2022/04/29 10:45:31;;;;;;;7.40;3.20;;;24.10;39.40;;;;;;6243048;23;20411;-47
2022/04/29 10:48:18;;;;;;;5.87;4.37;;;24.30;39.90;;;;;;6243156;23;20404;-41
2022/04/29 10:50:46;;;;;;;6.43;3.63;;;24.20;39.90;;;;;;6243086;23;20427;-40
2022/04/29 10:53:13;;;;;;;4.60;3.47;;;24.00;40.20;;;;;;6242773;23;20439;-40
2022/04/29 10:55:40;;;;;;;8.63;3.47;;;23.90;40.10;;;;;;6243198;23;20376;-46
2022/04/29 10:58:20;;;;;;;5.27;3.50;;;23.80;40.10;;;;;;6243208;23;20387;-45
2022/04/29 11:00:54;;;;;;;9.40;3.93;;;23.70;39.80;;;;;;6243727;23;20411;-44
2022/04/29 11:03:38;;;;;;;4.40;3.40;;;23.60;40.90;;;;;;6242958;23;20411;-43
2022/04/29 11:06:11;;;;;;;9.20;3.80;;;23.50;39.90;;;;;;6243112;23;20395;-44
2022/04/29 11:08:37;;;;;;;13.80;4.77;;;23.50;39.70;;;;;;6243390;23;20419;-43
2022/04/29 11:11:05;;;;;;;6.20;4.80;;;23.40;39.70;;;;;;6243198;22;20435;-43
2022/04/29 11:13:36;;;;;;;5.87;2.70;;;23.40;40.70;;;;;;6243486;23;20404;-43
2022/04/29 11:16:14;;;;;;;4.60;3.90;;;23.40;39.30;;;;;;6242410;23;20392;-48
2022/04/29 11:18:42;;;;;;;4.57;3.43;;;23.30;39.70;;;;;;6235525;23;20431;-46
2022/04/29 11:26:48;;;;;;;6.53;3.87;;;23.10;40.40;;;;;;6211580;23;20398;-43
2022/04/29 11:29:17;;;;;;;9.83;4.60;;;22.90;40.20;;;;;;6236331;23;20391;-44
2022/04/29 11:31:46;;;;;;;5.03;3.60;;;22.80;40.40;;;;;;6242932;23;20438;-43
2022/04/29 11:34:15;;;;;;;7.33;3.83;;;22.80;40.40;;;;;;6242965;23;20460;-42
2022/04/29 11:36:44;;;;;;;5.60;3.50;;;22.80;40.40;;;;;;6243235;23;20404;-47
2022/04/29 11:39:16;;;;;;;6.33;3.30;;;22.80;40.30;;;;;;6243059;23;20460;-44
2022/04/29 11:41:54;;;;;;;9.73;4.80;;;22.80;40.60;;;;;;6242994;23;20400;-47
2022/04/29 11:44:34;;;;;;;6.13;4.70;;;22.80;41.10;;;;;;6243500;22;20399;-48
2022/04/29 11:47:00;;;;;;;3.43;2.77;;;22.60;39.70;;;;;;6243716;23;20384;-46
2022/04/29 11:49:34;;;;;;;5.63;3.50;;;22.50;40.70;;;;;;6243086;23;20404;-44
2022/04/29 11:52:21;;;;;;;7.20;4.77;;;22.40;41.00;;;;;;6243388;22;20439;-51
2022/04/29 11:54:52;;;;;;;10.30;4.07;;;22.10;40.70;;;;;;6242900;23;20423;-43
2022/04/29 11:57:19;;;;;;;5.90;4.27;;;21.90;42.10;;;;;;6243171;23;20460;-48
2022/04/29 11:59:46;;;;;;;6.30;3.50;;;21.90;42.00;;;;;;6243338;23;20412;-47
2022/04/29 12:02:24;;;;;;;7.73;4.63;;;21.90;41.60;;;;;;6243174;23;20385;-54
2022/04/29 12:05:00;;;;;;;4.40;4.00;;;22.00;42.00;;;;;;6243714;22;20443;-47
2022/04/29 12:07:29;;;;;;;8.20;5.90;;;21.90;42.00;;;;;;6243125;23;20380;-44
2022/04/29 12:09:59;;;;;;;11.03;3.97;;;21.80;41.90;;;;;;6242983;23;20412;-48
2022/04/29 12:12:27;;;;;;;8.30;3.60;;;21.70;42.10;;;;;;6242741;23;20439;-48
2022/04/29 12:14:55;;;;;;;5.87;4.30;;;21.60;41.70;;;;;;6242670;23;20415;-42
2022/04/29 12:17:32;;;;;;;9.47;3.97;;;21.50;42.30;;;;;;6242678;23;20400;-46
2022/04/29 12:20:01;;;;;;;9.83;4.20;;;21.50;42.40;;;;;;6242827;23;20386;-50
2022/04/29 12:22:31;;;;;;;7.57;5.23;;;21.50;42.60;;;;;;6242656;23;20424;-47
2022/04/29 12:24:57;;;;;;;4.77;3.90;;;21.40;41.20;;;;;;6242950;23;20431;-48
2022/04/29 12:27:31;;;;;;;5.37;3.67;;;21.40;42.20;;;;;;6242939;23;20427;-45
2022/04/29 12:35:29;;;;;;;9.17;4.00;;;21.70;42.20;;;;;;6242321;23;20375;-44
2022/04/29 12:37:57;;;;;;;5.93;4.07;;;21.80;42.10;;;;;;6242057;23;20395;-49
2022/04/29 12:40:28;;;;;;;7.27;3.90;;;21.90;42.10;;;;;;6242528;23;20392;-44
2022/04/29 12:43:09;;;;;;;6.40;3.83;;;22.10;41.30;;;;;;6242287;23;20388;-42
2022/04/29 12:45:36;;;;;;;17.67;4.57;;;22.10;41.10;;;;;;6243087;23;20395;-43
2022/04/29 12:48:05;;;;;;;4.50;4.10;;;22.10;40.20;;;;;;6243091;23;20400;-44
2022/04/29 12:50:36;;;;;;;9.03;4.47;;;22.10;41.00;;;;;;6242644;23;20388;-47
2022/04/29 12:53:07;;;;;;;4.60;3.30;;;22.00;41.20;;;;;;6242134;23;20412;-53
2022/04/29 12:55:36;;;;;;;4.90;4.40;;;22.00;40.90;;;;;;6242153;23;20403;-46
2022/04/29 12:58:08;;;;;;;9.23;4.37;;;21.90;41.10;;;;;;6242426;23;20576;-43
2022/04/29 13:00:35;;;;;;;6.10;4.10;;;21.80;41.00;;;;;;6242326;22;20402;-46
2022/04/29 13:03:04;;;;;;;8.27;3.83;;;21.70;41.40;;;;;;6242491;23;20499;-49
2022/04/29 13:05:32;;;;;;;4.77;3.63;;;21.70;41.90;;;;;;6241549;23;20428;-46
2022/04/29 13:07:59;;;;;;;6.60;4.70;;;21.90;41.90;;;;;;6241751;23;20444;-50
2022/04/29 13:10:27;;;;;;;5.23;3.70;;;21.90;40.90;;;;;;6242174;23;20412;-40
2022/04/29 13:12:55;;;;;;;6.47;4.00;;;22.00;40.60;;;;;;6241895;23;20444;-40
2022/04/29 13:15:23;;;;;;;5.30;3.80;;;22.00;40.70;;;;;;6242214;23;20427;-43
2022/04/29 13:17:50;;;;;;;4.60;3.50;;;22.00;40.90;;;;;;6242401;23;20408;-45
2022/04/29 13:20:17;;;;;;;8.80;4.80;;;22.00;40.60;;;;;;6242094;23;20412;-43
2022/04/29 13:22:43;;;;;;;6.87;3.20;;;22.00;41.20;;;;;;6241933;23;20424;-48
2022/04/29 13:25:10;;;;;;;6.03;4.13;;;22.00;41.00;;;;;;6242367;23;20410;-41
2022/04/29 13:27:40;;;;;;;4.10;3.70;;;22.00;40.70;;;;;;6241613;23;20431;-41
2022/04/29 13:30:08;;;;;;;6.20;3.60;;;22.00;41.60;;;;;;6242057;23;20404;-39